createdAt,value
2023-05-20T00:03:39.964Z,13.91
2023-05-20T00:08:42.799Z,13.91
2023-05-20T00:13:46.972Z,13.90
2023-05-20T00:18:49.766Z,13.89
2023-05-20T00:23:52.878Z,13.86
2023-05-20T00:28:56.948Z,13.85
2023-05-20T00:33:59.829Z,13.82
2023-05-20T00:39:02.673Z,13.79
2023-05-20T00:44:07.220Z,13.79
2023-05-20T00:49:10.078Z,13.76
2023-05-20T00:54:13.442Z,13.73
2023-05-20T00:59:17.977Z,13.72
2023-05-20T01:04:22.014Z,13.69
2023-05-20T01:09:25.222Z,13.61
2023-05-20T01:14:33.362Z,13.60
2023-05-20T01:19:42.113Z,13.57
2023-05-20T01:24:48.307Z,13.51
2023-05-20T01:29:52.414Z,13.48
2023-05-20T01:34:57.979Z,13.49
2023-05-20T01:40:02.548Z,13.49
2023-05-20T01:45:06.885Z,13.48
2023-05-20T01:50:10.311Z,13.42
2023-05-20T01:55:15.012Z,13.42
2023-05-20T02:00:18.322Z,13.46
2023-05-20T02:05:21.380Z,13.42
2023-05-20T02:10:25.651Z,13.37
2023-05-20T02:15:28.464Z,13.40
2023-05-20T02:20:33.001Z,13.39
2023-05-20T02:25:38.573Z,13.37
2023-05-20T02:30:41.648Z,13.31
2023-05-20T02:35:44.571Z,13.32
2023-05-20T02:40:48.720Z,13.24
2023-05-20T02:45:52.418Z,13.20
2023-05-20T02:50:55.968Z,13.21
2023-05-20T02:56:01.576Z,13.14
2023-05-20T03:01:04.580Z,13.14
2023-05-20T03:06:08.162Z,13.14
2023-05-20T03:11:12.350Z,13.04
2023-05-20T03:16:16.708Z,13.11
2023-05-20T03:21:23.772Z,13.10
2023-05-20T03:26:28.093Z,13.13
2023-05-20T03:31:31.134Z,13.11
2023-05-20T03:36:33.989Z,13.06
2023-05-20T03:41:40.596Z,13.05
2023-05-20T03:46:43.958Z,13.04
2023-05-20T03:51:47.208Z,12.97
2023-05-20T03:56:52.239Z,12.93
2023-05-20T04:01:57.014Z,12.90
2023-05-20T04:07:00.781Z,12.85
2023-05-20T04:12:06.089Z,12.86
2023-05-20T04:17:09.601Z,12.88
2023-05-20T04:22:12.687Z,12.90
2023-05-20T04:27:17.146Z,12.88
2023-05-20T04:32:21.141Z,12.96
2023-05-20T04:37:25.293Z,13.01
2023-05-20T04:42:29.902Z,12.93
2023-05-20T04:47:38.990Z,13.13
2023-05-20T04:52:43.044Z,13.27
2023-05-20T04:57:48.225Z,13.37
2023-05-20T05:02:51.048Z,13.38
2023-05-20T05:07:55.370Z,13.48
2023-05-20T05:13:00.428Z,13.53
2023-05-20T05:18:03.903Z,13.60
2023-05-20T05:23:08.399Z,13.70
2023-05-20T05:28:12.727Z,13.77
2023-05-20T05:33:17.328Z,13.75
2023-05-20T05:38:20.408Z,13.74
2023-05-20T05:43:25.338Z,13.70
2023-05-20T05:48:29.380Z,13.75
2023-05-20T05:53:32.355Z,13.85
2023-05-20T05:58:37.183Z,14.11
2023-05-20T06:03:42.206Z,14.21
2023-05-20T06:08:45.236Z,14.38
2023-05-20T06:13:50.520Z,14.46
2023-05-20T06:18:57.101Z,14.61
2023-05-20T06:23:59.997Z,14.97
2023-05-20T06:29:04.867Z,14.93
2023-05-20T06:34:09.054Z,14.93
2023-05-20T06:39:12.583Z,15.21
2023-05-20T06:44:19.266Z,15.28
2023-05-20T06:49:29.579Z,16.29
2023-05-20T06:54:34.167Z,16.52
2023-05-20T06:59:39.300Z,16.09
2023-05-20T07:04:43.115Z,16.19
2023-05-20T07:09:46.470Z,15.95
2023-05-20T07:14:51.449Z,16.39
2023-05-20T07:19:54.489Z,16.40
2023-05-20T07:24:57.459Z,16.51
2023-05-20T07:30:01.956Z,16.76
2023-05-20T07:35:07.421Z,16.51
2023-05-20T07:40:12.327Z,16.80
2023-05-20T07:45:18.291Z,16.81
2023-05-20T07:50:22.787Z,16.94
2023-05-20T07:55:25.910Z,17.43
2023-05-20T08:00:31.342Z,17.56
2023-05-20T08:05:38.873Z,17.60
2023-05-20T08:10:42.334Z,17.27
2023-05-20T08:15:48.508Z,17.00
2023-05-20T08:20:51.725Z,17.21
2023-05-20T08:25:56.399Z,16.85
2023-05-20T08:31:03.777Z,17.63
2023-05-20T08:36:08.939Z,18.06
2023-05-20T08:41:12.274Z,18.67
2023-05-20T08:46:20.427Z,18.25
2023-05-20T08:51:28.382Z,18.50
2023-05-20T08:56:32.810Z,18.38
2023-05-20T09:01:43.495Z,19.52
2023-05-20T09:06:47.375Z,18.89
2023-05-20T09:11:50.149Z,19.04
2023-05-20T09:16:54.434Z,19.42
2023-05-20T09:21:58.231Z,19.24
2023-05-20T09:27:01.050Z,19.50
2023-05-20T09:32:06.339Z,19.13
2023-05-20T09:37:11.014Z,19.29
2023-05-20T09:42:20.560Z,19.40
2023-05-20T09:47:25.682Z,18.83
2023-05-20T09:52:30.237Z,18.78
2023-05-20T09:57:35.447Z,18.60
2023-05-20T10:02:39.967Z,18.56
2023-05-20T10:07:58.594Z,18.57
2023-05-20T10:13:14.396Z,18.68
2023-05-20T10:18:31.477Z,18.75
2023-05-20T10:23:34.363Z,18.73
2023-05-20T10:28:38.513Z,18.86
2023-05-20T10:33:45.581Z,19.19
2023-05-20T10:38:53.869Z,18.86
2023-05-20T10:44:04.172Z,19.78
2023-05-20T10:49:19.614Z,20.48
2023-05-20T10:54:24.572Z,21.31
2023-05-20T10:59:27.580Z,20.43
2023-05-20T11:04:32.625Z,19.95
2023-05-20T11:09:36.412Z,20.05
2023-05-20T11:14:39.190Z,20.04
2023-05-20T11:19:43.536Z,19.90
2023-05-20T11:24:48.289Z,20.27
2023-05-20T11:29:51.917Z,20.53
2023-05-20T11:34:56.641Z,20.24
2023-05-20T11:40:11.031Z,19.59
2023-05-20T11:45:14.744Z,19.13
2023-05-20T11:50:19.837Z,19.02
2023-05-20T11:55:22.640Z,19.58
2023-05-20T12:00:29.275Z,19.13
2023-05-20T12:05:35.929Z,20.23
2023-05-20T12:10:39.212Z,19.89
2023-05-20T12:15:42.585Z,19.94
2023-05-20T12:20:46.969Z,21.84
2023-05-20T12:25:50.175Z,22.82
2023-05-20T12:30:53.330Z,23.59
2023-05-20T12:35:59.329Z,22.55
2023-05-20T12:41:02.192Z,23.94
2023-05-20T12:46:05.860Z,24.73
2023-05-20T12:51:10.046Z,24.56
2023-05-20T12:56:15.143Z,24.49
2023-05-20T13:01:17.967Z,23.54
2023-05-20T13:06:23.965Z,23.88
2023-05-20T13:11:26.920Z,25.84
2023-05-20T13:16:29.784Z,25.90
2023-05-20T13:21:34.607Z,24.18
2023-05-20T13:26:38.311Z,22.62
2023-05-20T13:31:41.126Z,23.40
2023-05-20T13:36:45.579Z,21.34
2023-05-20T13:41:48.475Z,21.33
2023-05-20T13:46:52.144Z,21.74
2023-05-20T13:51:56.524Z,20.82
2023-05-20T13:56:59.511Z,20.23
2023-05-20T14:02:04.450Z,20.92
2023-05-20T14:07:10.160Z,20.83
2023-05-20T14:12:13.749Z,21.07
2023-05-20T14:17:16.742Z,20.61
2023-05-20T14:22:20.976Z,20.15
2023-05-20T14:27:24.155Z,22.74
2023-05-20T14:32:27.138Z,26.46
2023-05-20T14:37:31.408Z,23.68
2023-05-20T14:42:34.596Z,23.09
2023-05-20T14:47:40.153Z,23.89
2023-05-20T14:52:44.449Z,27.64
2023-05-20T14:57:47.636Z,30.31
2023-05-20T15:02:50.499Z,26.45
2023-05-20T15:07:57.453Z,28.23
2023-05-20T15:13:00.331Z,26.45
2023-05-20T15:18:03.145Z,28.65
2023-05-20T15:23:07.381Z,30.35
2023-05-20T15:28:10.781Z,31.41
2023-05-20T15:33:13.698Z,34.82
2023-05-20T15:38:18.747Z,31.26
2023-05-20T15:43:22.342Z,30.62
2023-05-20T15:48:25.289Z,28.71
2023-05-20T15:53:29.444Z,27.61
2023-05-20T15:58:32.476Z,25.88
2023-05-20T16:03:35.905Z,24.00
2023-05-20T16:08:41.789Z,29.86
2023-05-20T16:13:44.533Z,26.53
2023-05-20T16:18:47.405Z,23.45
2023-05-20T16:23:52.672Z,22.03
2023-05-20T16:28:55.947Z,22.97
2023-05-20T16:33:59.845Z,28.54
2023-05-20T16:39:04.334Z,31.89
2023-05-20T16:44:07.180Z,29.77
2023-05-20T16:49:10.011Z,27.26
2023-05-20T16:54:14.131Z,29.70
2023-05-20T16:59:18.738Z,32.47
2023-05-20T17:04:21.619Z,32.15
2023-05-20T17:09:25.941Z,30.82
2023-05-20T17:14:28.740Z,28.52
2023-05-20T17:19:31.831Z,28.06
2023-05-20T17:24:36.863Z,28.76
2023-05-20T17:29:39.716Z,26.54
2023-05-20T17:34:42.519Z,25.04
2023-05-20T17:39:46.976Z,23.70
2023-05-20T17:44:49.863Z,22.60
2023-05-20T17:49:53.108Z,22.24
2023-05-20T17:54:57.288Z,20.80
2023-05-20T18:00:00.228Z,20.95
2023-05-20T18:05:03.033Z,20.61
2023-05-20T18:10:10.190Z,19.55
2023-05-20T18:15:14.202Z,19.66
2023-05-20T18:20:17.933Z,19.44
2023-05-20T18:25:23.404Z,19.70
2023-05-20T18:30:26.426Z,19.24
2023-05-20T18:35:29.550Z,18.68
2023-05-20T18:40:35.824Z,18.70
2023-05-20T18:45:38.858Z,18.70
2023-05-20T18:50:41.997Z,18.51
2023-05-20T18:55:47.660Z,18.35
2023-05-20T19:00:51.051Z,18.15
2023-05-20T19:05:55.599Z,17.98
2023-05-20T19:10:59.868Z,17.82
2023-05-20T19:16:02.837Z,17.66
2023-05-20T19:21:07.292Z,17.56
2023-05-20T19:26:11.911Z,17.22
2023-05-20T19:31:20.820Z,17.17
2023-05-20T19:36:25.738Z,17.03
2023-05-20T19:41:30.016Z,16.94
2023-05-20T19:46:32.996Z,16.73
2023-05-20T19:51:36.650Z,16.62
2023-05-20T19:56:41.827Z,16.51
2023-05-20T20:01:45.162Z,16.43
2023-05-20T20:06:49.273Z,16.37
2023-05-20T20:11:53.454Z,16.33
2023-05-20T20:16:56.275Z,16.20
2023-05-20T20:21:59.268Z,16.14
2023-05-20T20:27:04.559Z,16.07
2023-05-20T20:32:08.085Z,15.97
2023-05-20T20:37:15.327Z,15.96
2023-05-20T20:42:19.677Z,15.89
2023-05-20T20:47:23.652Z,15.81
2023-05-20T20:52:26.645Z,15.78
2023-05-20T20:57:32.055Z,15.67
2023-05-20T21:02:34.888Z,15.61
2023-05-20T21:07:38.969Z,15.59
2023-05-20T21:12:43.193Z,15.42
2023-05-20T21:17:46.118Z,15.38
2023-05-20T21:22:48.959Z,15.35
2023-05-20T21:27:53.076Z,15.27
2023-05-20T21:32:56.072Z,15.23
2023-05-20T21:37:59.313Z,15.13
2023-05-20T21:43:03.503Z,15.12
2023-05-20T21:48:07.194Z,15.02
2023-05-20T21:53:10.328Z,14.95
2023-05-20T21:58:14.665Z,14.92
2023-05-20T22:03:17.878Z,14.93
2023-05-20T22:08:20.929Z,14.92
2023-05-20T22:13:26.157Z,14.79
2023-05-20T22:18:29.145Z,14.68
2023-05-20T22:23:31.991Z,14.59
2023-05-20T22:28:36.221Z,14.50
2023-05-20T22:33:41.314Z,14.45
2023-05-20T22:38:44.132Z,14.42
2023-05-20T22:43:48.299Z,14.33
2023-05-20T22:48:52.815Z,14.19
2023-05-20T22:53:56.601Z,14.08
2023-05-20T22:59:00.909Z,14.05
2023-05-20T23:04:03.765Z,13.96
2023-05-20T23:09:07.385Z,13.86
2023-05-20T23:14:12.196Z,13.80
2023-05-20T23:19:15.109Z,13.74
2023-05-20T23:24:17.932Z,13.67
2023-05-20T23:29:22.360Z,13.61
2023-05-20T23:34:25.156Z,13.60
2023-05-20T23:39:27.926Z,13.54
2023-05-20T23:44:32.186Z,13.51
2023-05-20T23:49:35.206Z,13.49
2023-05-20T23:54:37.939Z,13.44
2023-05-20T23:59:43.011Z,13.44
